Time;durP1;ratioP1;P1;durP2;ratioP2;P2;SDS_P1;SDS_P2;PMS_P1;PMS_P2;Temp;Humidity;BMP_temperature;BMP_pressure;BME280_temperature;BME280_humidity;BME280_pressure;Samples;Min_cycle;Max_cycle;Signal;HPM_P1;HPM_P2
2024/01/06 00:00:56;;;;;;;16.73;3.23;;;11.50;76.00;10.30;95141.00;;;;4981285;28;20223;-83
2024/01/06 00:03:23;;;;;;;3.63;2.37;;;11.60;75.90;10.40;95137.00;;;;4984415;28;20281;-84
2024/01/06 00:05:51;;;;;;;7.00;2.17;;;11.50;76.10;10.40;95140.00;;;;4975182;28;20721;-85
2024/01/06 00:08:18;;;;;;;33.70;3.10;;;11.60;76.20;10.40;95144.00;;;;4983836;28;20249;-85
2024/01/06 00:10:45;;;;;;;8.27;3.03;;;11.60;76.30;10.40;95142.00;;;;4971814;28;20312;-85
2024/01/06 00:13:12;;;;;;;2.10;1.90;;;11.60;76.40;10.40;95134.00;;;;4972316;28;20203;-84
2024/01/06 00:15:40;;;;;;;32.90;3.23;;;11.60;76.40;10.40;95131.00;;;;4983941;28;20270;-84
2024/01/06 00:18:08;;;;;;;16.47;2.90;;;11.60;76.50;10.50;95139.00;;;;4979962;28;20658;-85
2024/01/06 00:20:36;;;;;;;8.70;2.30;;;11.60;76.60;10.50;95148.00;;;;4973315;28;20229;-85
2024/01/06 00:23:03;;;;;;;14.20;2.70;;;11.90;76.80;10.50;95148.00;;;;4974955;28;20250;-85
2024/01/06 00:25:30;;;;;;;17.50;2.37;;;11.60;76.70;10.50;95155.00;;;;4980259;28;20239;-86
2024/01/06 00:27:57;;;;;;;13.40;2.40;;;11.70;76.70;10.50;95139.00;;;;4973221;28;20261;-85
2024/01/06 00:30:25;;;;;;;44.87;4.10;;;11.70;76.70;10.50;95153.00;;;;4977845;28;20370;-85
2024/01/06 00:32:52;;;;;;;7.43;1.80;;;11.70;76.90;10.50;95150.00;;;;4968491;28;20289;-85
2024/01/06 00:35:20;;;;;;;1.57;1.47;;;11.70;76.90;10.50;95147.00;;;;4972867;28;20295;-85
2024/01/06 00:37:48;;;;;;;2.00;1.90;;;11.70;76.90;10.50;95141.00;;;;4972924;28;20207;-85
2024/01/06 00:40:15;;;;;;;2.80;2.23;;;11.70;76.90;10.60;95139.00;;;;4975512;28;20768;-85
2024/01/06 00:42:42;;;;;;;15.73;3.67;;;11.70;76.80;10.60;95143.00;;;;4976361;28;20290;-85
2024/01/06 00:45:10;;;;;;;16.60;2.93;;;11.70;77.00;10.60;95145.00;;;;4977380;28;20304;-85
2024/01/06 00:47:38;;;;;;;5.93;2.43;;;11.70;76.90;10.60;95138.00;;;;4985621;28;20230;-86
2024/01/06 00:50:06;;;;;;;21.67;3.80;;;11.80;77.00;10.60;95145.00;;;;4998113;28;20226;-84
2024/01/06 00:52:35;;;;;;;2.90;2.70;;;11.80;77.00;10.60;95144.00;;;;4990361;28;20288;-86
2024/01/06 00:55:02;;;;;;;2.70;2.50;;;11.80;77.00;10.60;95145.00;;;;4990999;28;20234;-85
2024/01/06 00:57:29;;;;;;;2.90;2.60;;;11.80;76.90;10.70;95143.00;;;;4989095;28;20207;-84
2024/01/06 00:59:56;;;;;;;2.93;2.50;;;11.80;76.80;10.70;95138.00;;;;4988255;28;20756;-86
2024/01/06 01:02:23;;;;;;;13.20;3.00;;;11.80;76.70;10.70;95141.00;;;;4985131;28;20223;-85
2024/01/06 01:04:52;;;;;;;2.47;2.30;;;11.80;76.70;10.70;95134.00;;;;4992502;28;20226;-85
2024/01/06 01:07:19;;;;;;;3.00;2.70;;;11.80;76.80;10.70;95137.00;;;;4977793;28;20729;-85
2024/01/06 01:09:48;;;;;;;3.00;2.73;;;11.80;76.90;10.70;95138.00;;;;4975818;28;20251;-84
2024/01/06 01:12:15;;;;;;;3.57;3.23;;;11.80;76.80;10.70;95145.00;;;;4980881;28;20289;-84
2024/01/06 01:14:42;;;;;;;3.27;2.97;;;11.80;76.70;10.70;95143.00;;;;4979991;28;20285;-86
2024/01/06 01:17:09;;;;;;;2.83;2.63;;;11.80;76.60;10.70;95145.00;;;;4984190;28;20253;-84
2024/01/06 01:19:36;;;;;;;3.70;3.03;;;11.80;76.60;10.70;95143.00;;;;4982581;28;20230;-85
2024/01/06 01:22:04;;;;;;;20.73;3.60;;;11.80;76.50;10.70;95138.00;;;;4977321;28;20305;-85
2024/01/06 01:24:31;;;;;;;7.23;3.27;;;11.80;76.50;10.70;95133.00;;;;4975841;28;20230;-84
2024/01/06 01:27:00;;;;;;;3.53;3.23;;;11.80;76.60;10.70;95142.00;;;;4976362;28;20204;-85
2024/01/06 01:29:27;;;;;;;13.00;4.00;;;11.80;76.80;10.70;95148.00;;;;4976443;28;20310;-86
2024/01/06 01:31:54;;;;;;;4.10;3.20;;;11.90;76.70;10.70;95141.00;;;;4983631;28;20798;-86
2024/01/06 01:34:21;;;;;;;11.73;3.73;;;11.80;76.80;10.60;95140.00;;;;4981179;28;20661;-85
2024/01/06 01:36:48;;;;;;;4.00;3.70;;;11.80;76.80;10.60;95138.00;;;;4981973;28;20839;-86
2024/01/06 01:39:16;;;;;;;4.23;3.83;;;11.80;76.80;10.60;95138.00;;;;4978482;28;20223;-83
2024/01/06 01:41:43;;;;;;;4.30;3.93;;;11.80;76.70;10.60;95143.00;;;;4989007;28;20199;-86
2024/01/06 01:44:13;;;;;;;4.33;3.97;;;11.80;76.60;10.60;95131.00;;;;4978710;28;20744;-84
2024/01/06 01:46:40;;;;;;;8.50;4.27;;;11.80;76.50;10.60;95137.00;;;;4979892;28;20318;-84
2024/01/06 01:49:08;;;;;;;4.30;3.90;;;11.70;76.30;10.50;95142.00;;;;4975838;28;20988;-85
2024/01/06 01:51:35;;;;;;;4.27;3.87;;;11.70;76.40;10.50;95139.00;;;;4973914;28;20657;-86
2024/01/06 01:54:05;;;;;;;22.40;5.20;;;11.70;76.40;10.50;95140.00;;;;4977896;28;20199;-85
2024/01/06 01:56:34;;;;;;;8.30;4.20;;;11.70;76.60;10.50;95133.00;;;;4983263;28;20317;-84
2024/01/06 01:59:06;;;;;;;23.63;4.70;;;11.70;76.70;10.50;95133.00;;;;4975338;28;20280;-85
2024/01/06 02:01:35;;;;;;;33.73;5.60;;;11.60;76.90;10.50;95133.00;;;;4983296;28;20614;-84
2024/01/06 02:04:03;;;;;;;4.90;3.83;;;11.70;77.10;10.50;95141.00;;;;4975242;28;20199;-85
2024/01/06 02:06:30;;;;;;;6.83;4.27;;;11.70;77.30;10.50;95149.00;;;;4975358;28;20282;-85
2024/01/06 02:08:57;;;;;;;14.87;4.27;;;11.70;77.30;10.50;95141.00;;;;4975339;28;20732;-85
2024/01/06 02:11:24;;;;;;;15.93;4.90;;;11.70;77.30;10.50;95143.00;;;;4978742;28;20222;-85
2024/01/06 02:13:52;;;;;;;5.53;5.03;;;11.70;77.30;10.50;95145.00;;;;4977675;28;20254;-85
2024/01/06 02:16:19;;;;;;;5.30;4.53;;;11.70;77.20;10.50;95142.00;;;;4979320;28;20207;-86
2024/01/06 02:18:49;;;;;;;5.33;4.83;;;11.70;77.10;10.50;95150.00;;;;4966909;28;20203;-84
2024/01/06 02:21:16;;;;;;;8.17;4.70;;;11.70;77.90;10.60;95149.00;;;;4974537;28;20203;-85
2024/01/06 02:23:45;;;;;;;9.77;4.97;;;11.70;78.00;10.50;95155.00;;;;4988951;28;20234;-85
2024/01/06 02:26:13;;;;;;;6.03;4.90;;;11.70;77.30;10.60;95161.00;;;;4989909;28;20259;-84
2024/01/06 02:28:40;;;;;;;7.07;4.50;;;11.70;77.40;10.50;95158.00;;;;4980603;28;20199;-85
2024/01/06 02:31:07;;;;;;;4.47;4.10;;;11.70;77.60;10.60;95161.00;;;;4981451;28;20254;-84
2024/01/06 02:33:34;;;;;;;5.07;3.87;;;11.70;77.60;10.60;95164.00;;;;4982560;28;20199;-85
2024/01/06 02:36:01;;;;;;;4.67;4.23;;;11.70;77.50;10.60;95153.00;;;;4982334;28;20294;-86
2024/01/06 02:38:28;;;;;;;4.67;4.27;;;11.70;77.50;10.50;95158.00;;;;4982997;28;20231;-85
2024/01/06 02:40:57;;;;;;;5.47;3.80;;;11.70;77.50;10.60;95155.00;;;;4982082;28;20250;-85
2024/01/06 02:43:24;;;;;;;16.53;4.47;;;11.70;77.60;10.50;95160.00;;;;4971992;28;20227;-86
2024/01/06 02:45:51;;;;;;;4.80;4.23;;;11.70;77.80;10.60;95156.00;;;;4974822;28;20231;-85
2024/01/06 02:48:18;;;;;;;4.87;4.30;;;11.70;77.90;10.60;95157.00;;;;4978419;28;20649;-84
2024/01/06 02:50:45;;;;;;;7.60;4.63;;;11.70;78.00;10.50;95154.00;;;;4977854;28;20299;-86
2024/01/06 02:53:13;;;;;;;6.63;3.90;;;11.70;78.10;10.50;95149.00;;;;4975957;28;20265;-86
2024/01/06 02:55:40;;;;;;;12.77;4.93;;;11.70;78.00;10.50;95153.00;;;;4974305;28;20203;-85
2024/01/06 02:58:09;;;;;;;29.10;4.97;;;11.60;78.00;10.50;95159.00;;;;4982693;28;20230;-85
2024/01/06 03:00:36;;;;;;;10.53;4.17;;;11.70;78.10;10.50;95171.00;;;;4974154;28;20323;-86
2024/01/06 03:03:03;;;;;;;12.20;4.50;;;11.70;78.20;10.50;95155.00;;;;4980329;28;20600;-85
2024/01/06 03:05:31;;;;;;;13.87;4.67;;;11.70;78.10;10.50;95156.00;;;;4974316;28;20261;-85
2024/01/06 03:07:58;;;;;;;3.40;3.20;;;11.70;78.10;10.50;95167.00;;;;4974698;28;20769;-85
2024/01/06 03:10:25;;;;;;;19.93;3.67;;;11.70;78.90;10.50;95168.00;;;;4989600;28;20222;-84
2024/01/06 03:12:52;;;;;;;18.90;4.33;;;11.70;78.10;10.40;95175.00;;;;4985641;28;20191;-84
2024/01/06 03:15:21;;;;;;;3.80;3.50;;;11.70;78.10;10.40;95172.00;;;;4981836;28;20242;-85
2024/01/06 03:17:48;;;;;;;3.53;3.23;;;11.70;78.20;10.40;95164.00;;;;4970860;28;20255;-84
2024/01/06 03:20:15;;;;;;;4.27;3.10;;;11.70;78.10;10.40;95155.00;;;;4973533;28;20234;-84
2024/01/06 03:22:42;;;;;;;12.03;3.40;;;11.60;77.90;10.40;95163.00;;;;4969957;28;20929;-85
2024/01/06 03:25:10;;;;;;;2.90;2.70;;;11.60;78.00;10.40;95167.00;;;;4973612;28;20206;-84
2024/01/06 03:27:37;;;;;;;6.77;2.70;;;11.60;78.10;10.40;95163.00;;;;4974041;28;20665;-84
2024/01/06 03:30:06;;;;;;;2.50;2.30;;;11.60;78.00;10.40;95163.00;;;;4974049;28;20262;-84
2024/01/06 03:32:34;;;;;;;9.27;2.37;;;11.60;78.00;10.40;95171.00;;;;4973205;28;20218;-85
2024/01/06 03:35:01;;;;;;;14.43;2.43;;;11.60;78.10;10.40;95175.00;;;;4973900;28;20218;-85
2024/01/06 03:37:28;;;;;;;4.80;1.77;;;11.60;78.10;10.40;95178.00;;;;4986835;28;20231;-85
2024/01/06 03:39:55;;;;;;;1.70;1.60;;;11.60;78.20;10.30;95165.00;;;;4974283;28;20309;-85
2024/01/06 03:42:23;;;;;;;1.67;1.47;;;11.60;78.20;10.30;95161.00;;;;4973049;28;20234;-84
2024/01/06 03:44:51;;;;;;;1.40;1.30;;;11.60;78.00;10.30;95172.00;;;;4979724;28;20334;-85
2024/01/06 03:47:19;;;;;;;12.37;2.10;;;11.50;77.80;10.30;95180.00;;;;4961651;28;20231;-86
2024/01/06 03:49:48;;;;;;;8.40;1.60;;;11.50;77.90;10.30;95181.00;;;;4973360;28;20235;-86
2024/01/06 03:52:15;;;;;;;8.33;1.73;;;11.50;77.90;10.30;95173.00;;;;4973026;28;20736;-85
2024/01/06 03:54:42;;;;;;;1.13;1.03;;;11.50;78.00;10.30;95169.00;;;;4973467;28;20282;-84
2024/01/06 03:57:09;;;;;;;1.70;1.07;;;11.50;78.10;10.30;95172.00;;;;4973488;28;20294;-86
2024/01/06 03:59:36;;;;;;;1.40;1.30;;;11.60;78.10;10.30;95172.00;;;;4973479;28;20720;-85
2024/01/06 04:02:03;;;;;;;8.47;1.30;;;11.50;78.60;10.30;95180.00;;;;4972046;28;20238;-85
2024/01/06 04:04:30;;;;;;;6.10;1.30;;;11.50;77.70;10.20;95176.00;;;;4978548;28;20234;-85
2024/01/06 04:07:01;;;;;;;8.17;1.33;;;11.50;77.90;10.20;95168.00;;;;4976258;28;20238;-84
2024/01/06 04:09:28;;;;;;;0.90;0.90;;;11.50;77.90;10.20;95187.00;;;;4982842;28;20233;-85
2024/01/06 04:11:55;;;;;;;0.93;0.90;;;11.50;78.00;10.20;95192.00;;;;4982628;28;20278;-85
2024/01/06 04:14:22;;;;;;;0.80;0.80;;;11.40;78.00;10.20;95192.00;;;;4972170;28;20294;-84
2024/01/06 04:16:49;;;;;;;0.90;0.90;;;11.50;77.90;10.20;95190.00;;;;4972920;28;20295;-85
2024/01/06 04:19:17;;;;;;;10.53;1.50;;;11.40;77.80;10.20;95197.00;;;;4981134;28;20223;-85
2024/01/06 04:21:44;;;;;;;1.83;0.93;;;11.40;77.90;10.20;95197.00;;;;4972693;28;20213;-85
2024/01/06 04:24:12;;;;;;;3.73;0.90;;;11.40;78.00;10.20;95196.00;;;;4979274;28;20298;-86
2024/01/06 04:26:39;;;;;;;0.77;0.77;;;11.40;78.30;10.20;95188.00;;;;4975283;28;20595;-84
2024/01/06 04:29:06;;;;;;;1.10;1.00;;;11.40;78.40;10.20;95191.00;;;;4978386;28;20583;-85
2024/01/06 04:31:33;;;;;;;1.00;0.80;;;11.40;78.40;10.20;95191.00;;;;4977692;28;20240;-86
2024/01/06 04:34:00;;;;;;;1.20;1.10;;;11.40;78.30;10.20;95195.00;;;;4989667;28;20234;-84
2024/01/06 04:36:27;;;;;;;0.90;0.80;;;11.40;78.50;10.20;95202.00;;;;4987228;28;20227;-85
2024/01/06 04:38:55;;;;;;;0.77;0.77;;;11.40;78.40;10.20;95213.00;;;;4973030;28;20257;-86
2024/01/06 04:41:23;;;;;;;15.17;1.27;;;11.40;78.50;10.20;95214.00;;;;4990014;28;20637;-85
2024/01/06 04:43:51;;;;;;;0.73;0.73;;;11.40;79.40;10.20;95214.00;;;;4984835;28;20239;-86
2024/01/06 04:46:18;;;;;;;0.63;0.63;;;11.40;78.70;10.20;95217.00;;;;4972628;28;20701;-85
2024/01/06 04:48:45;;;;;;;0.70;0.70;;;11.40;78.50;10.20;95219.00;;;;4972390;28;20208;-85
2024/01/06 04:51:12;;;;;;;0.53;0.53;;;11.40;78.50;10.20;95222.00;;;;4990948;28;20209;-86
2024/01/06 04:53:39;;;;;;;0.70;0.70;;;11.40;78.40;10.20;95219.00;;;;4986589;28;20266;-86
2024/01/06 04:56:07;;;;;;;0.73;0.73;;;11.40;78.30;10.20;95220.00;;;;4991983;28;20219;-86
2024/01/06 04:58:35;;;;;;;1.07;1.00;;;11.40;78.40;10.20;95225.00;;;;4989873;28;20262;-85
2024/01/06 05:01:03;;;;;;;4.10;1.30;;;11.40;78.40;10.10;95228.00;;;;4986344;28;20209;-83
2024/01/06 05:03:30;;;;;;;9.50;1.47;;;11.40;78.50;10.10;95228.00;;;;4976335;28;20204;-86
2024/01/06 05:05:57;;;;;;;5.27;1.37;;;11.40;79.20;10.10;95223.00;;;;4990980;28;20234;-85
2024/01/06 05:08:24;;;;;;;1.43;1.33;;;11.30;78.50;10.10;95225.00;;;;5002041;28;20266;-83
2024/01/06 05:10:53;;;;;;;4.83;2.10;;;11.30;78.50;10.10;95222.00;;;;4988634;28;20250;-85
2024/01/06 05:13:20;;;;;;;5.70;2.10;;;11.30;78.40;10.10;95222.00;;;;4979992;28;20197;-84
2024/01/06 05:15:49;;;;;;;4.23;2.33;;;11.30;78.40;10.00;95227.00;;;;4981982;28;20638;-84
2024/01/06 05:18:17;;;;;;;7.77;2.30;;;11.30;78.40;10.00;95239.00;;;;4983677;28;20290;-83
2024/01/06 05:20:44;;;;;;;3.30;2.30;;;11.30;78.50;10.00;95241.00;;;;4984030;28;20235;-85
2024/01/06 05:23:11;;;;;;;2.37;2.17;;;11.20;78.40;10.00;95237.00;;;;4976418;28;20278;-85
2024/01/06 05:25:38;;;;;;;3.97;2.30;;;11.20;78.50;9.90;95239.00;;;;4988796;28;20195;-85
2024/01/06 05:28:06;;;;;;;2.87;2.20;;;11.20;78.40;9.90;95239.00;;;;4983512;28;20282;-85
2024/01/06 05:30:33;;;;;;;2.93;2.20;;;11.20;78.30;9.90;95249.00;;;;4991926;28;20234;-85
2024/01/06 05:33:03;;;;;;;2.40;2.30;;;11.20;78.10;9.80;95246.00;;;;4991197;28;20222;-85
2024/01/06 05:35:30;;;;;;;2.50;2.30;;;11.10;77.90;9.70;95251.00;;;;4988887;28;20212;-85
2024/01/06 05:37:57;;;;;;;2.60;2.40;;;11.10;77.80;9.70;95246.00;;;;4995214;28;20704;-85
2024/01/06 05:40:24;;;;;;;3.03;2.50;;;11.00;77.60;9.60;95249.00;;;;4992546;28;20689;-85
2024/01/06 05:42:55;;;;;;;3.47;2.60;;;11.00;77.30;9.60;95260.00;;;;4990077;28;20752;-85
2024/01/06 05:45:22;;;;;;;2.53;2.20;;;10.90;77.50;9.50;95255.00;;;;4986375;28;20279;-85
2024/01/06 05:47:49;;;;;;;2.47;2.27;;;10.90;77.70;9.50;95260.00;;;;4999773;28;20318;-85
2024/01/06 05:50:18;;;;;;;3.77;2.80;;;10.80;77.60;9.50;95268.00;;;;4980595;28;20302;-85
2024/01/06 05:52:47;;;;;;;3.87;2.30;;;10.80;77.60;9.40;95273.00;;;;4987196;28;20239;-85
2024/01/06 05:55:14;;;;;;;3.87;2.13;;;10.80;77.90;9.40;95276.00;;;;4994225;28;20227;-84
2024/01/06 05:57:41;;;;;;;2.10;2.00;;;10.80;78.10;9.40;95281.00;;;;4996201;28;20646;-85
2024/01/06 06:00:11;;;;;;;2.57;1.80;;;10.70;78.20;9.40;95289.00;;;;4972736;28;20315;-84
2024/01/06 06:02:39;;;;;;;3.17;1.60;;;10.70;78.20;9.30;95292.00;;;;4980177;28;20207;-85
2024/01/06 06:05:05;;;;;;;1.93;1.83;;;10.70;78.20;9.30;95300.00;;;;4977486;28;20744;-85
2024/01/06 06:07:38;;;;;;;3.30;1.80;;;10.60;78.20;9.30;95304.00;;;;4976126;28;20903;-86
2024/01/06 06:10:08;;;;;;;2.93;1.60;;;10.60;77.80;9.20;95300.00;;;;4975896;28;20227;-84
2024/01/06 06:12:36;;;;;;;1.80;1.70;;;10.60;77.80;9.20;95310.00;;;;4988026;28;20211;-85
2024/01/06 06:15:03;;;;;;;4.80;1.90;;;10.60;77.80;9.20;95315.00;;;;4983879;28;20290;-86
2024/01/06 06:17:31;;;;;;;7.63;1.63;;;10.50;77.70;9.10;95319.00;;;;4996601;28;20238;-86
2024/01/06 06:19:58;;;;;;;1.70;1.60;;;10.50;78.10;9.10;95319.00;;;;4983290;28;20604;-85
2024/01/06 06:22:26;;;;;;;3.77;1.57;;;10.50;78.10;9.10;95323.00;;;;4987416;28;20277;-85
2024/01/06 06:24:55;;;;;;;2.03;1.60;;;10.40;78.00;9.10;95329.00;;;;4989629;28;20205;-83
2024/01/06 06:27:22;;;;;;;10.10;2.40;;;10.50;78.20;9.10;95328.00;;;;4980948;28;20282;-85
2024/01/06 06:29:49;;;;;;;2.80;1.50;;;10.40;78.20;9.10;95331.00;;;;4982197;28;20313;-85
2024/01/06 06:32:16;;;;;;;2.50;1.90;;;10.40;78.20;9.00;95328.00;;;;4988410;28;20208;-85
2024/01/06 06:34:43;;;;;;;3.60;1.80;;;10.40;78.00;9.00;95329.00;;;;4975939;28;20729;-85
2024/01/06 06:37:11;;;;;;;2.37;1.50;;;10.40;78.20;9.00;95329.00;;;;4983838;28;20234;-85
2024/01/06 06:39:38;;;;;;;2.27;1.47;;;10.30;78.20;9.00;95339.00;;;;4987684;28;20222;-85
2024/01/06 06:42:07;;;;;;;10.50;1.63;;;10.30;78.30;9.00;95342.00;;;;4976481;28;20203;-85
2024/01/06 06:44:34;;;;;;;1.40;1.30;;;10.30;78.30;9.00;95347.00;;;;4981284;28;20238;-83
2024/01/06 06:47:01;;;;;;;6.03;1.30;;;10.30;78.30;9.00;95344.00;;;;4977037;28;20309;-85
2024/01/06 06:49:28;;;;;;;3.73;1.70;;;10.30;78.20;9.00;95339.00;;;;4978793;28;20314;-84
2024/01/06 06:51:56;;;;;;;9.60;2.00;;;10.30;78.30;9.00;95347.00;;;;4977505;28;20199;-83
2024/01/06 06:54:23;;;;;;;9.93;2.23;;;10.30;78.40;9.00;95356.00;;;;4982992;28;20194;-85
2024/01/06 06:56:50;;;;;;;1.83;1.57;;;10.30;78.50;9.00;95348.00;;;;4992318;28;20210;-84
2024/01/06 06:59:19;;;;;;;13.53;1.90;;;10.30;78.50;9.00;95350.00;;;;4978565;28;20297;-83
2024/01/06 07:01:46;;;;;;;3.70;1.60;;;10.30;78.50;9.00;95363.00;;;;4978784;28;20286;-84
2024/01/06 07:04:13;;;;;;;2.03;1.50;;;10.30;78.70;9.00;95360.00;;;;4979246;28;20247;-84
2024/01/06 07:06:40;;;;;;;1.53;1.43;;;10.30;78.80;9.00;95356.00;;;;4978050;28;20237;-85
2024/01/06 07:09:07;;;;;;;3.97;1.50;;;10.30;78.80;9.00;95359.00;;;;4973913;28;20298;-85
2024/01/06 07:11:34;;;;;;;2.37;1.60;;;10.30;78.80;9.00;95361.00;;;;4974583;28;20290;-85
2024/01/06 07:14:01;;;;;;;3.90;1.57;;;10.30;78.70;9.00;95352.00;;;;4974821;28;20235;-84
2024/01/06 07:16:30;;;;;;;20.27;3.23;;;10.40;78.50;9.00;95351.00;;;;4974463;28;20203;-85
2024/01/06 07:18:57;;;;;;;1.13;1.00;;;10.30;78.40;9.00;95357.00;;;;4974470;28;20298;-84
2024/01/06 07:21:24;;;;;;;2.37;1.60;;;10.30;78.60;9.00;95363.00;;;;4978480;28;20282;-85
2024/01/06 07:23:51;;;;;;;11.97;1.77;;;10.30;78.40;9.00;95357.00;;;;4978045;28;20195;-83
2024/01/06 07:26:18;;;;;;;1.63;1.27;;;10.30;78.40;9.00;95364.00;;;;4978867;28;20277;-82
2024/01/06 07:28:44;;;;;;;4.87;1.60;;;10.30;78.60;9.00;95367.00;;;;4974977;28;20873;-85
2024/01/06 07:31:11;;;;;;;3.93;1.43;;;10.30;78.50;9.00;95368.00;;;;4973471;28;20227;-84
2024/01/06 07:33:40;;;;;;;1.30;1.20;;;10.30;78.60;9.00;95374.00;;;;4970558;28;20200;-84
2024/01/06 07:36:07;;;;;;;2.63;1.50;;;10.30;78.50;9.10;95376.00;;;;4973992;28;20218;-85
2024/01/06 07:38:35;;;;;;;1.93;1.63;;;10.30;78.50;9.10;95385.00;;;;4974700;28;20234;-84
2024/01/06 07:41:03;;;;;;;8.20;2.27;;;10.30;79.10;9.10;95377.00;;;;4982212;28;20227;-85
2024/01/06 07:43:30;;;;;;;4.67;2.00;;;10.30;78.40;9.10;95384.00;;;;4978767;28;20222;-84
2024/01/06 07:45:58;;;;;;;7.87;2.27;;;10.30;78.50;9.10;95384.00;;;;4977030;28;20648;-84
2024/01/06 07:48:25;;;;;;;14.40;2.80;;;10.60;78.80;9.10;95381.00;;;;4984192;28;20944;-84
2024/01/06 07:50:53;;;;;;;2.20;1.50;;;10.40;78.70;9.10;95387.00;;;;4984308;28;20315;-85
2024/01/06 07:53:20;;;;;;;2.73;1.87;;;10.40;78.70;9.10;95391.00;;;;4984673;28;20203;-84
2024/01/06 07:55:47;;;;;;;9.70;2.07;;;10.40;78.80;9.10;95391.00;;;;4977505;28;20669;-82
2024/01/06 07:58:15;;;;;;;2.00;1.70;;;10.40;78.70;9.20;95398.00;;;;4986800;28;20718;-85
2024/01/06 08:00:42;;;;;;;2.03;1.40;;;10.40;78.80;9.20;95398.00;;;;4974006;28;20223;-85
2024/01/06 08:03:11;;;;;;;2.07;1.70;;;10.40;78.70;9.20;95396.00;;;;4980417;28;20282;-85
2024/01/06 08:05:38;;;;;;;3.37;2.00;;;10.40;78.50;9.20;95404.00;;;;4973782;28;20200;-85
2024/01/06 08:08:07;;;;;;;1.63;1.37;;;10.30;78.30;9.20;95405.00;;;;4980643;28;20227;-85
2024/01/06 08:10:34;;;;;;;2.00;1.67;;;10.50;78.40;9.30;95420.00;;;;4973758;28;20306;-84
2024/01/06 08:13:02;;;;;;;3.00;2.20;;;10.50;78.50;9.30;95411.00;;;;4980706;28;20249;-84
2024/01/06 08:15:29;;;;;;;2.13;1.73;;;10.50;78.50;9.30;95413.00;;;;4977758;28;20225;-85
2024/01/06 08:17:56;;;;;;;3.00;2.23;;;10.50;78.50;9.30;95422.00;;;;4981167;28;20262;-84
2024/01/06 08:20:23;;;;;;;4.20;2.40;;;10.50;78.30;9.30;95421.00;;;;4974153;28;20656;-84
2024/01/06 08:22:50;;;;;;;11.07;2.90;;;10.50;78.40;9.30;95425.00;;;;4972917;28;20625;-86
2024/01/06 08:25:19;;;;;;;6.10;2.87;;;10.50;78.40;9.30;95429.00;;;;4970954;28;20198;-86
2024/01/06 08:27:46;;;;;;;23.30;3.10;;;10.60;78.40;9.30;95434.00;;;;4986780;28;20333;-85
2024/01/06 08:30:13;;;;;;;5.27;2.17;;;10.50;78.40;9.30;95435.00;;;;4979726;28;20254;-86
2024/01/06 08:32:41;;;;;;;3.07;2.30;;;10.50;78.40;9.30;95436.00;;;;4986753;28;20285;-86
2024/01/06 08:35:09;;;;;;;22.53;3.60;;;10.50;78.30;9.30;95437.00;;;;4989468;28;20298;-86
2024/01/06 08:37:36;;;;;;;9.60;2.97;;;10.60;78.60;9.30;95440.00;;;;4966527;28;20299;-85
2024/01/06 08:40:04;;;;;;;2.27;2.00;;;10.60;78.80;9.30;95440.00;;;;4980657;28;20313;-85
2024/01/06 08:42:33;;;;;;;3.83;2.37;;;10.60;78.80;9.30;95440.00;;;;4976820;28;20562;-85
2024/01/06 08:45:00;;;;;;;9.93;3.10;;;10.60;78.50;9.30;95447.00;;;;4982649;28;20737;-84
2024/01/06 08:47:27;;;;;;;9.33;3.37;;;10.60;78.20;9.40;95444.00;;;;4969000;28;20222;-85
2024/01/06 08:49:54;;;;;;;7.07;3.80;;;10.70;78.30;9.40;95442.00;;;;4976601;28;20223;-84
2024/01/06 08:52:21;;;;;;;3.97;3.10;;;10.70;78.50;9.40;95441.00;;;;4979028;28;20683;-84
2024/01/06 08:54:49;;;;;;;6.07;2.40;;;10.70;78.50;9.40;95443.00;;;;4987123;28;20277;-84
2024/01/06 08:57:16;;;;;;;5.67;2.30;;;10.70;78.60;9.40;95443.00;;;;4985453;28;20207;-86
2024/01/06 08:59:45;;;;;;;20.73;3.00;;;10.70;78.60;9.40;95450.00;;;;4985905;28;20305;-84
2024/01/06 09:02:13;;;;;;;18.40;2.93;;;10.80;78.60;9.50;95454.00;;;;4987350;28;20226;-86
2024/01/06 09:04:40;;;;;;;2.83;2.37;;;10.80;78.70;9.50;95451.00;;;;4989635;28;20202;-85
2024/01/06 09:07:07;;;;;;;10.60;2.50;;;10.80;78.70;9.50;95453.00;;;;4990477;28;20732;-86
2024/01/06 09:09:34;;;;;;;9.73;2.57;;;10.80;78.70;9.50;95460.00;;;;4983621;28;20225;-86
2024/01/06 09:12:01;;;;;;;5.67;2.17;;;10.80;78.60;9.50;95459.00;;;;4990973;28;20227;-85
2024/01/06 09:14:29;;;;;;;3.50;1.90;;;10.90;78.80;9.60;95460.00;;;;4981565;28;20675;-85
2024/01/06 09:16:58;;;;;;;12.00;2.20;;;10.90;78.70;9.60;95469.00;;;;4988339;28;20198;-86
2024/01/06 09:19:28;;;;;;;7.97;2.60;;;10.90;78.60;9.60;95464.00;;;;4977127;28;20306;-84
2024/01/06 09:21:55;;;;;;;7.23;2.60;;;10.90;78.70;9.70;95464.00;;;;4989058;28;20199;-85
2024/01/06 09:24:22;;;;;;;33.10;4.00;;;11.00;78.90;9.70;95470.00;;;;4978520;28;20206;-85
2024/01/06 09:26:50;;;;;;;8.07;2.60;;;11.00;78.80;9.70;95478.00;;;;4992337;28;20287;-86
2024/01/06 09:29:17;;;;;;;3.47;2.10;;;11.00;78.80;9.70;95478.00;;;;4979781;28;20238;-86
2024/01/06 09:31:44;;;;;;;17.77;2.70;;;11.10;78.70;9.70;95478.00;;;;4992226;28;20281;-85
2024/01/06 09:34:13;;;;;;;1.90;1.60;;;11.10;78.50;9.80;95482.00;;;;4986060;28;20732;-86
2024/01/06 09:36:41;;;;;;;2.83;1.83;;;11.10;78.40;9.80;95478.00;;;;4992605;28;20297;-86
2024/01/06 09:39:08;;;;;;;2.20;1.70;;;11.10;78.20;9.80;95477.00;;;;4979881;28;20219;-85
2024/01/06 09:41:35;;;;;;;16.77;2.80;;;11.10;77.90;9.80;95470.00;;;;4989707;28;20571;-86
2024/01/06 09:44:03;;;;;;;31.50;3.97;;;11.10;78.10;9.80;95470.00;;;;4980980;28;20202;-84
2024/01/06 09:46:30;;;;;;;12.50;2.60;;;11.10;78.10;9.90;95473.00;;;;4975743;28;20231;-85
2024/01/06 09:48:59;;;;;;;2.20;2.00;;;11.20;78.40;9.90;95471.00;;;;4982946;28;20659;-85
2024/01/06 09:51:28;;;;;;;3.33;1.77;;;11.20;78.30;9.90;95472.00;;;;4983761;28;20677;-86
2024/01/06 09:54:00;;;;;;;4.77;2.00;;;11.20;78.20;9.90;95472.00;;;;4988828;28;20237;-86
2024/01/06 09:56:30;;;;;;;2.33;1.53;;;11.20;78.50;10.00;95468.00;;;;4992460;28;20294;-86
2024/01/06 09:58:58;;;;;;;9.60;2.73;;;11.30;78.50;10.00;95480.00;;;;4991074;28;20223;-85
2024/01/06 10:01:25;;;;;;;6.57;2.27;;;11.30;78.50;10.10;95482.00;;;;4988229;28;20270;-85
2024/01/06 10:03:52;;;;;;;4.67;2.10;;;11.30;78.30;10.10;95477.00;;;;4973221;28;20673;-86
2024/01/06 10:06:20;;;;;;;27.73;4.40;;;11.40;78.10;10.10;95484.00;;;;4971264;28;20748;-84
2024/01/06 10:08:53;;;;;;;6.53;1.90;;;11.40;78.90;10.10;95482.00;;;;4972043;28;20234;-84
2024/01/06 10:11:22;;;;;;;6.33;1.83;;;11.40;78.10;10.20;95478.00;;;;4978411;28;20298;-84
2024/01/06 10:13:51;;;;;;;7.33;2.30;;;11.50;78.20;10.20;95478.00;;;;4984728;28;20214;-87
2024/01/06 10:16:19;;;;;;;5.53;1.90;;;11.40;78.00;10.20;95486.00;;;;4969668;28;20202;-85
2024/01/06 10:18:46;;;;;;;5.77;2.90;;;11.50;78.00;10.20;95479.00;;;;4976242;28;20298;-86
2024/01/06 10:21:17;;;;;;;14.97;4.27;;;11.50;77.90;10.20;95477.00;;;;4981219;28;20203;-85
2024/01/06 10:23:45;;;;;;;5.00;2.97;;;11.50;78.00;10.20;95485.00;;;;4971976;28;20207;-86
2024/01/06 10:26:15;;;;;;;2.80;2.03;;;11.50;77.90;10.20;95480.00;;;;4990364;28;20206;-86
2024/01/06 10:28:42;;;;;;;6.90;3.70;;;11.50;78.10;10.20;95486.00;;;;4976981;28;20227;-86
2024/01/06 10:31:10;;;;;;;3.23;2.27;;;11.50;77.20;10.20;95476.00;;;;4975898;28;20271;-86
2024/01/06 10:33:37;;;;;;;2.47;1.90;;;11.50;77.20;10.30;95482.00;;;;4976958;28;20241;-86
2024/01/06 10:36:06;;;;;;;3.47;2.90;;;11.50;77.20;10.30;95472.00;;;;4971399;28;20199;-87
2024/01/06 10:38:35;;;;;;;4.33;2.20;;;11.50;77.40;10.30;95472.00;;;;4980131;28;20650;-83
2024/01/06 10:41:07;;;;;;;6.07;2.60;;;11.50;77.30;10.30;95466.00;;;;4985992;28;20221;-86
2024/01/06 10:43:40;;;;;;;4.43;3.30;;;11.60;77.10;10.20;95463.00;;;;4972197;28;20222;-86
2024/01/06 10:46:10;;;;;;;7.00;3.20;;;11.50;76.70;10.20;95470.00;;;;4978037;28;20339;-85
2024/01/06 10:48:42;;;;;;;9.20;5.27;;;11.50;77.40;10.20;95463.00;;;;4974573;28;20613;-85
2024/01/06 10:51:10;;;;;;;5.53;4.00;;;11.50;77.00;10.20;95467.00;;;;4974065;28;20738;-84
2024/01/06 10:53:39;;;;;;;15.23;3.30;;;11.50;76.90;10.30;95469.00;;;;4975846;28;20301;-83
2024/01/06 10:56:07;;;;;;;5.67;3.03;;;11.60;76.90;10.20;95463.00;;;;4973387;28;21140;-84